sensor_id;sensor_type;location;lat;lon;timestamp;P1;durP1;ratioP1;P2;durP2;ratioP2
52776;SDS011;38656;54.260;20.822;2023-05-10T00:01:32;11.60;;;8.02;;
52776;SDS011;38656;54.260;20.822;2023-05-10T00:03:59;15.60;;;9.18;;
52776;SDS011;38656;54.260;20.822;2023-05-10T00:06:25;20.98;;;7.95;;
52776;SDS011;38656;54.260;20.822;2023-05-10T00:08:51;10.80;;;9.07;;
52776;SDS011;38656;54.260;20.822;2023-05-10T00:11:17;10.27;;;8.30;;
52776;SDS011;38656;54.260;20.822;2023-05-10T00:13:44;9.90;;;8.02;;
52776;SDS011;38656;54.260;20.822;2023-05-10T00:16:10;14.00;;;7.75;;
52776;SDS011;38656;54.260;20.822;2023-05-10T00:18:38;16.05;;;8.23;;
52776;SDS011;38656;54.260;20.822;2023-05-10T00:21:04;13.80;;;8.40;;
52776;SDS011;38656;54.260;20.822;2023-05-10T00:23:30;11.88;;;8.40;;
52776;SDS011;38656;54.260;20.822;2023-05-10T00:25:57;12.93;;;8.18;;
52776;SDS011;38656;54.260;20.822;2023-05-10T00:28:23;13.82;;;7.25;;
52776;SDS011;38656;54.260;20.822;2023-05-10T00:30:49;12.32;;;7.75;;
52776;SDS011;38656;54.260;20.822;2023-05-10T00:33:15;10.77;;;6.32;;
52776;SDS011;38656;54.260;20.822;2023-05-10T00:35:42;12.07;;;7.68;;
52776;SDS011;38656;54.260;20.822;2023-05-10T00:38:08;10.20;;;7.28;;
52776;SDS011;38656;54.260;20.822;2023-05-10T00:40:35;8.43;;;7.40;;
52776;SDS011;38656;54.260;20.822;2023-05-10T00:43:02;10.88;;;7.57;;
52776;SDS011;38656;54.260;20.822;2023-05-10T00:45:29;9.80;;;6.95;;
52776;SDS011;38656;54.260;20.822;2023-05-10T00:47:57;11.90;;;7.88;;
52776;SDS011;38656;54.260;20.822;2023-05-10T00:50:24;7.88;;;6.90;;
52776;SDS011;38656;54.260;20.822;2023-05-10T00:52:51;10.13;;;7.65;;
52776;SDS011;38656;54.260;20.822;2023-05-10T00:55:18;12.27;;;8.25;;
52776;SDS011;38656;54.260;20.822;2023-05-10T00:57:44;19.77;;;10.10;;
52776;SDS011;38656;54.260;20.822;2023-05-10T01:00:10;14.88;;;9.05;;
52776;SDS011;38656;54.260;20.822;2023-05-10T01:02:42;10.82;;;9.27;;
52776;SDS011;38656;54.260;20.822;2023-05-10T01:05:11;10.13;;;7.53;;
52776;SDS011;38656;54.260;20.822;2023-05-10T01:07:38;9.38;;;7.93;;
52776;SDS011;38656;54.260;20.822;2023-05-10T01:10:05;12.75;;;8.20;;
52776;SDS011;38656;54.260;20.822;2023-05-10T01:12:36;11.88;;;7.15;;
52776;SDS011;38656;54.260;20.822;2023-05-10T01:15:07;13.35;;;7.25;;
52776;SDS011;38656;54.260;20.822;2023-05-10T01:17:36;9.10;;;6.68;;
52776;SDS011;38656;54.260;20.822;2023-05-10T01:20:06;25.70;;;16.17;;
52776;SDS011;38656;54.260;20.822;2023-05-10T01:31:30;21.92;;;10.90;;
52776;SDS011;38656;54.260;20.822;2023-05-10T01:34:21;22.40;;;10.57;;
52776;SDS011;38656;54.260;20.822;2023-05-10T01:36:57;21.33;;;11.57;;
52776;SDS011;38656;54.260;20.822;2023-05-10T01:39:32;14.70;;;9.50;;
52776;SDS011;38656;54.260;20.822;2023-05-10T01:42:10;15.68;;;8.80;;
52776;SDS011;38656;54.260;20.822;2023-05-10T01:47:14;12.02;;;7.60;;
52776;SDS011;38656;54.260;20.822;2023-05-10T01:49:55;12.10;;;7.28;;
52776;SDS011;38656;54.260;20.822;2023-05-10T01:52:26;10.35;;;7.88;;
52776;SDS011;38656;54.260;20.822;2023-05-10T01:55:00;12.52;;;7.30;;
52776;SDS011;38656;54.260;20.822;2023-05-10T01:57:32;11.45;;;6.85;;
52776;SDS011;38656;54.260;20.822;2023-05-10T02:00:03;9.32;;;6.47;;
52776;SDS011;38656;54.260;20.822;2023-05-10T02:02:33;8.80;;;6.80;;
52776;SDS011;38656;54.260;20.822;2023-05-10T02:05:03;8.13;;;7.00;;
52776;SDS011;38656;54.260;20.822;2023-05-10T02:07:34;15.05;;;7.05;;
52776;SDS011;38656;54.260;20.822;2023-05-10T02:10:02;14.00;;;7.18;;
52776;SDS011;38656;54.260;20.822;2023-05-10T02:12:31;11.05;;;7.00;;
52776;SDS011;38656;54.260;20.822;2023-05-10T02:15:02;10.25;;;5.82;;
52776;SDS011;38656;54.260;20.822;2023-05-10T02:17:30;8.95;;;6.70;;
52776;SDS011;38656;54.260;20.822;2023-05-10T02:19:58;9.70;;;8.13;;
52776;SDS011;38656;54.260;20.822;2023-05-10T02:22:26;11.75;;;8.57;;
52776;SDS011;38656;54.260;20.822;2023-05-10T02:24:57;14.30;;;8.38;;
52776;SDS011;38656;54.260;20.822;2023-05-10T02:27:25;13.57;;;8.82;;
52776;SDS011;38656;54.260;20.822;2023-05-10T02:29:54;13.00;;;9.48;;
52776;SDS011;38656;54.260;20.822;2023-05-10T02:32:21;11.75;;;8.38;;
52776;SDS011;38656;54.260;20.822;2023-05-10T02:34:49;11.48;;;9.40;;
52776;SDS011;38656;54.260;20.822;2023-05-10T02:37:17;10.75;;;7.63;;
52776;SDS011;38656;54.260;20.822;2023-05-10T02:39:49;11.98;;;8.82;;
52776;SDS011;38656;54.260;20.822;2023-05-10T02:42:17;11.43;;;7.75;;
52776;SDS011;38656;54.260;20.822;2023-05-10T02:44:47;22.92;;;8.77;;
52776;SDS011;38656;54.260;20.822;2023-05-10T02:47:15;11.30;;;8.05;;
52776;SDS011;38656;54.260;20.822;2023-05-10T02:49:43;16.95;;;10.15;;
52776;SDS011;38656;54.260;20.822;2023-05-10T02:52:09;14.73;;;10.38;;
52776;SDS011;38656;54.260;20.822;2023-05-10T02:54:39;12.95;;;8.90;;
52776;SDS011;38656;54.260;20.822;2023-05-10T02:57:11;13.82;;;9.18;;
52776;SDS011;38656;54.260;20.822;2023-05-10T02:59:44;12.27;;;9.53;;
52776;SDS011;38656;54.260;20.822;2023-05-10T03:02:13;16.25;;;9.40;;
52776;SDS011;38656;54.260;20.822;2023-05-10T03:04:40;15.15;;;9.00;;
52776;SDS011;38656;54.260;20.822;2023-05-10T03:07:06;14.98;;;10.02;;
52776;SDS011;38656;54.260;20.822;2023-05-10T03:09:33;31.45;;;15.45;;
52776;SDS011;38656;54.260;20.822;2023-05-10T03:20:21;22.50;;;10.00;;
52776;SDS011;38656;54.260;20.822;2023-05-10T03:23:02;21.67;;;12.02;;
52776;SDS011;38656;54.260;20.822;2023-05-10T03:25:36;20.52;;;9.93;;
52776;SDS011;38656;54.260;20.822;2023-05-10T03:28:05;19.58;;;10.73;;
52776;SDS011;38656;54.260;20.822;2023-05-10T03:30:32;16.50;;;10.07;;
52776;SDS011;38656;54.260;20.822;2023-05-10T03:33:04;25.92;;;10.63;;
52776;SDS011;38656;54.260;20.822;2023-05-10T03:35:33;20.10;;;14.55;;
52776;SDS011;38656;54.260;20.822;2023-05-10T03:38:00;54.47;;;33.80;;
52776;SDS011;38656;54.260;20.822;2023-05-10T03:40:26;80.80;;;46.92;;
52776;SDS011;38656;54.260;20.822;2023-05-10T03:43:00;85.53;;;50.05;;
52776;SDS011;38656;54.260;20.822;2023-05-10T03:45:26;56.35;;;39.45;;
52776;SDS011;38656;54.260;20.822;2023-05-10T03:47:53;76.10;;;44.28;;
52776;SDS011;38656;54.260;20.822;2023-05-10T03:50:19;30.15;;;23.15;;
52776;SDS011;38656;54.260;20.822;2023-05-10T03:52:46;30.20;;;22.33;;
52776;SDS011;38656;54.260;20.822;2023-05-10T03:55:13;33.45;;;23.45;;
52776;SDS011;38656;54.260;20.822;2023-05-10T03:57:39;27.08;;;18.52;;
52776;SDS011;38656;54.260;20.822;2023-05-10T04:00:05;25.45;;;17.60;;
52776;SDS011;38656;54.260;20.822;2023-05-10T04:02:32;19.88;;;13.93;;
52776;SDS011;38656;54.260;20.822;2023-05-10T04:04:58;13.70;;;10.05;;
52776;SDS011;38656;54.260;20.822;2023-05-10T04:07:24;9.85;;;7.18;;
52776;SDS011;38656;54.260;20.822;2023-05-10T04:09:51;8.63;;;5.68;;
52776;SDS011;38656;54.260;20.822;2023-05-10T04:12:17;5.93;;;5.15;;
52776;SDS011;38656;54.260;20.822;2023-05-10T04:14:43;7.38;;;5.88;;
52776;SDS011;38656;54.260;20.822;2023-05-10T04:17:09;8.52;;;6.97;;
52776;SDS011;38656;54.260;20.822;2023-05-10T04:19:35;8.82;;;5.85;;
52776;SDS011;38656;54.260;20.822;2023-05-10T04:22:02;8.35;;;5.70;;
52776;SDS011;38656;54.260;20.822;2023-05-10T04:24:28;6.80;;;5.65;;
52776;SDS011;38656;54.260;20.822;2023-05-10T04:26:54;19.85;;;6.63;;
52776;SDS011;38656;54.260;20.822;2023-05-10T04:29:21;7.07;;;5.60;;
52776;SDS011;38656;54.260;20.822;2023-05-10T04:31:47;14.27;;;5.13;;
52776;SDS011;38656;54.260;20.822;2023-05-10T04:34:13;10.70;;;5.45;;
52776;SDS011;38656;54.260;20.822;2023-05-10T04:36:39;6.63;;;5.22;;
52776;SDS011;38656;54.260;20.822;2023-05-10T04:39:06;10.70;;;5.32;;
52776;SDS011;38656;54.260;20.822;2023-05-10T04:41:32;12.43;;;5.43;;
52776;SDS011;38656;54.260;20.822;2023-05-10T04:43:58;8.98;;;5.93;;
52776;SDS011;38656;54.260;20.822;2023-05-10T04:46:24;10.27;;;4.78;;
52776;SDS011;38656;54.260;20.822;2023-05-10T04:48:50;10.50;;;6.20;;
52776;SDS011;38656;54.260;20.822;2023-05-10T04:51:16;10.98;;;5.82;;
52776;SDS011;38656;54.260;20.822;2023-05-10T04:53:42;17.55;;;6.63;;
52776;SDS011;38656;54.260;20.822;2023-05-10T04:56:09;13.60;;;8.32;;
52776;SDS011;38656;54.260;20.822;2023-05-10T04:58:35;14.85;;;8.00;;
52776;SDS011;38656;54.260;20.822;2023-05-10T05:01:05;10.93;;;5.53;;
52776;SDS011;38656;54.260;20.822;2023-05-10T05:03:32;8.48;;;6.38;;
52776;SDS011;38656;54.260;20.822;2023-05-10T05:05:59;17.23;;;7.18;;
52776;SDS011;38656;54.260;20.822;2023-05-10T05:08:25;15.57;;;8.60;;
52776;SDS011;38656;54.260;20.822;2023-05-10T05:10:51;9.40;;;5.85;;
52776;SDS011;38656;54.260;20.822;2023-05-10T05:13:18;8.25;;;5.15;;
52776;SDS011;38656;54.260;20.822;2023-05-10T05:15:44;10.70;;;4.68;;
52776;SDS011;38656;54.260;20.822;2023-05-10T05:18:10;5.05;;;4.55;;
52776;SDS011;38656;54.260;20.822;2023-05-10T05:20:37;5.20;;;4.22;;
52776;SDS011;38656;54.260;20.822;2023-05-10T05:23:03;6.55;;;4.47;;
52776;SDS011;38656;54.260;20.822;2023-05-10T05:25:29;8.50;;;4.80;;
52776;SDS011;38656;54.260;20.822;2023-05-10T05:27:55;4.57;;;4.00;;
52776;SDS011;38656;54.260;20.822;2023-05-10T05:30:21;7.70;;;4.68;;
52776;SDS011;38656;54.260;20.822;2023-05-10T05:32:47;7.28;;;4.30;;
52776;SDS011;38656;54.260;20.822;2023-05-10T05:35:14;4.82;;;4.35;;
52776;SDS011;38656;54.260;20.822;2023-05-10T05:37:40;6.90;;;4.78;;
52776;SDS011;38656;54.260;20.822;2023-05-10T05:40:07;8.07;;;4.75;;
52776;SDS011;38656;54.260;20.822;2023-05-10T05:42:37;4.75;;;4.05;;
52776;SDS011;38656;54.260;20.822;2023-05-10T05:45:03;5.55;;;4.10;;
52776;SDS011;38656;54.260;20.822;2023-05-10T05:47:30;11.30;;;5.50;;
52776;SDS011;38656;54.260;20.822;2023-05-10T05:49:56;11.40;;;4.38;;
52776;SDS011;38656;54.260;20.822;2023-05-10T05:52:22;7.80;;;4.88;;
52776;SDS011;38656;54.260;20.822;2023-05-10T05:54:48;7.28;;;4.45;;
52776;SDS011;38656;54.260;20.822;2023-05-10T05:57:14;5.88;;;4.97;;
52776;SDS011;38656;54.260;20.822;2023-05-10T05:59:41;7.38;;;5.13;;
52776;SDS011;38656;54.260;20.822;2023-05-10T06:02:09;5.45;;;4.72;;
52776;SDS011;38656;54.260;20.822;2023-05-10T06:04:35;5.72;;;4.22;;
52776;SDS011;38656;54.260;20.822;2023-05-10T06:07:01;4.90;;;3.92;;
52776;SDS011;38656;54.260;20.822;2023-05-10T06:09:28;7.15;;;4.68;;
52776;SDS011;38656;54.260;20.822;2023-05-10T06:11:54;4.50;;;3.88;;
52776;SDS011;38656;54.260;20.822;2023-05-10T06:14:20;8.32;;;4.07;;
52776;SDS011;38656;54.260;20.822;2023-05-10T06:16:47;4.82;;;4.03;;
52776;SDS011;38656;54.260;20.822;2023-05-10T06:19:13;9.85;;;4.85;;
52776;SDS011;38656;54.260;20.822;2023-05-10T06:21:39;7.32;;;4.63;;
52776;SDS011;38656;54.260;20.822;2023-05-10T06:24:05;7.93;;;4.60;;
52776;SDS011;38656;54.260;20.822;2023-05-10T06:26:32;3.58;;;3.22;;
52776;SDS011;38656;54.260;20.822;2023-05-10T06:28:58;4.57;;;4.00;;
52776;SDS011;38656;54.260;20.822;2023-05-10T06:31:24;5.68;;;4.22;;
52776;SDS011;38656;54.260;20.822;2023-05-10T06:33:51;5.15;;;3.95;;
52776;SDS011;38656;54.260;20.822;2023-05-10T06:36:17;4.15;;;3.75;;
52776;SDS011;38656;54.260;20.822;2023-05-10T06:38:43;8.25;;;4.22;;
52776;SDS011;38656;54.260;20.822;2023-05-10T06:41:09;3.95;;;3.00;;
52776;SDS011;38656;54.260;20.822;2023-05-10T06:43:35;5.38;;;3.97;;
52776;SDS011;38656;54.260;20.822;2023-05-10T06:46:05;5.45;;;3.42;;
52776;SDS011;38656;54.260;20.822;2023-05-10T06:48:31;6.05;;;4.50;;
52776;SDS011;38656;54.260;20.822;2023-05-10T06:50:58;6.18;;;4.22;;
52776;SDS011;38656;54.260;20.822;2023-05-10T06:53:24;12.00;;;3.45;;
52776;SDS011;38656;54.260;20.822;2023-05-10T06:55:50;5.53;;;3.83;;
52776;SDS011;38656;54.260;20.822;2023-05-10T06:58:16;7.25;;;2.95;;
52776;SDS011;38656;54.260;20.822;2023-05-10T07:00:42;5.65;;;3.05;;
52776;SDS011;38656;54.260;20.822;2023-05-10T07:03:10;5.43;;;3.28;;
52776;SDS011;38656;54.260;20.822;2023-05-10T07:05:36;8.27;;;3.25;;
52776;SDS011;38656;54.260;20.822;2023-05-10T07:08:02;11.30;;;3.83;;
52776;SDS011;38656;54.260;20.822;2023-05-10T07:10:28;8.52;;;3.45;;
52776;SDS011;38656;54.260;20.822;2023-05-10T07:12:55;4.60;;;3.58;;
52776;SDS011;38656;54.260;20.822;2023-05-10T07:15:21;6.82;;;3.42;;
52776;SDS011;38656;54.260;20.822;2023-05-10T07:17:47;7.45;;;3.58;;
52776;SDS011;38656;54.260;20.822;2023-05-10T07:20:14;9.43;;;5.38;;
52776;SDS011;38656;54.260;20.822;2023-05-10T07:22:40;7.00;;;4.18;;
52776;SDS011;38656;54.260;20.822;2023-05-10T07:25:06;6.28;;;3.90;;
52776;SDS011;38656;54.260;20.822;2023-05-10T07:27:32;5.75;;;3.63;;
52776;SDS011;38656;54.260;20.822;2023-05-10T07:29:59;11.10;;;4.63;;
52776;SDS011;38656;54.260;20.822;2023-05-10T07:32:25;9.98;;;3.15;;
52776;SDS011;38656;54.260;20.822;2023-05-10T07:34:51;6.80;;;2.83;;
52776;SDS011;38656;54.260;20.822;2023-05-10T07:37:17;7.05;;;3.60;;
52776;SDS011;38656;54.260;20.822;2023-05-10T07:39:43;7.38;;;3.08;;
52776;SDS011;38656;54.260;20.822;2023-05-10T07:42:10;4.35;;;3.50;;
52776;SDS011;38656;54.260;20.822;2023-05-10T07:44:36;10.25;;;3.58;;
52776;SDS011;38656;54.260;20.822;2023-05-10T07:47:04;7.97;;;3.92;;
52776;SDS011;38656;54.260;20.822;2023-05-10T07:49:31;14.02;;;2.80;;
52776;SDS011;38656;54.260;20.822;2023-05-10T07:51:57;4.18;;;2.72;;
52776;SDS011;38656;54.260;20.822;2023-05-10T07:54:23;8.15;;;3.47;;
52776;SDS011;38656;54.260;20.822;2023-05-10T07:56:49;8.00;;;3.33;;
52776;SDS011;38656;54.260;20.822;2023-05-10T07:59:16;2.85;;;2.40;;
52776;SDS011;38656;54.260;20.822;2023-05-10T08:01:42;3.78;;;2.58;;
52776;SDS011;38656;54.260;20.822;2023-05-10T08:04:09;3.03;;;2.50;;
52776;SDS011;38656;54.260;20.822;2023-05-10T08:06:36;4.75;;;2.42;;
52776;SDS011;38656;54.260;20.822;2023-05-10T08:09:02;14.00;;;3.05;;
52776;SDS011;38656;54.260;20.822;2023-05-10T08:11:28;4.28;;;2.80;;
52776;SDS011;38656;54.260;20.822;2023-05-10T08:13:55;4.75;;;2.65;;
52776;SDS011;38656;54.260;20.822;2023-05-10T08:16:21;5.80;;;2.78;;
52776;SDS011;38656;54.260;20.822;2023-05-10T08:18:47;3.85;;;2.60;;
52776;SDS011;38656;54.260;20.822;2023-05-10T08:21:15;5.38;;;2.85;;
52776;SDS011;38656;54.260;20.822;2023-05-10T08:23:41;7.95;;;2.40;;
52776;SDS011;38656;54.260;20.822;2023-05-10T08:26:08;7.07;;;2.83;;
52776;SDS011;38656;54.260;20.822;2023-05-10T08:28:35;5.10;;;2.88;;
52776;SDS011;38656;54.260;20.822;2023-05-10T08:31:01;5.78;;;2.90;;
52776;SDS011;38656;54.260;20.822;2023-05-10T08:33:27;3.80;;;2.33;;
52776;SDS011;38656;54.260;20.822;2023-05-10T08:35:53;7.70;;;3.38;;
52776;SDS011;38656;54.260;20.822;2023-05-10T08:38:20;4.03;;;2.58;;
52776;SDS011;38656;54.260;20.822;2023-05-10T08:40:46;6.55;;;2.53;;
52776;SDS011;38656;54.260;20.822;2023-05-10T08:43:15;5.40;;;2.40;;
52776;SDS011;38656;54.260;20.822;2023-05-10T08:45:43;4.93;;;2.35;;
52776;SDS011;38656;54.260;20.822;2023-05-10T08:48:13;6.72;;;2.65;;
52776;SDS011;38656;54.260;20.822;2023-05-10T08:50:40;7.97;;;2.72;;
52776;SDS011;38656;54.260;20.822;2023-05-10T08:53:11;8.25;;;2.63;;
52776;SDS011;38656;54.260;20.822;2023-05-10T08:55:38;9.98;;;2.75;;
52776;SDS011;38656;54.260;20.822;2023-05-10T08:58:07;6.95;;;2.90;;
52776;SDS011;38656;54.260;20.822;2023-05-10T09:00:34;5.95;;;3.42;;
52776;SDS011;38656;54.260;20.822;2023-05-10T09:03:01;8.88;;;2.60;;
52776;SDS011;38656;54.260;20.822;2023-05-10T09:05:28;5.55;;;2.65;;
52776;SDS011;38656;54.260;20.822;2023-05-10T09:07:54;9.50;;;2.75;;
52776;SDS011;38656;54.260;20.822;2023-05-10T09:10:21;5.32;;;2.53;;
52776;SDS011;38656;54.260;20.822;2023-05-10T09:12:48;4.40;;;2.67;;
52776;SDS011;38656;54.260;20.822;2023-05-10T09:15:15;5.25;;;3.08;;
52776;SDS011;38656;54.260;20.822;2023-05-10T09:17:44;3.72;;;1.95;;
52776;SDS011;38656;54.260;20.822;2023-05-10T09:20:11;4.88;;;2.60;;
52776;SDS011;38656;54.260;20.822;2023-05-10T09:22:37;4.00;;;2.47;;
52776;SDS011;38656;54.260;20.822;2023-05-10T09:27:34;6.97;;;2.65;;
52776;SDS011;38656;54.260;20.822;2023-05-10T09:30:01;4.25;;;2.70;;
52776;SDS011;38656;54.260;20.822;2023-05-10T09:32:40;6.70;;;2.17;;
52776;SDS011;38656;54.260;20.822;2023-05-10T09:35:12;5.97;;;3.42;;
52776;SDS011;38656;54.260;20.822;2023-05-10T09:37:43;14.93;;;2.83;;
52776;SDS011;38656;54.260;20.822;2023-05-10T09:40:16;4.28;;;2.47;;
52776;SDS011;38656;54.260;20.822;2023-05-10T09:45:23;6.53;;;2.97;;
52776;SDS011;38656;54.260;20.822;2023-05-10T09:47:50;3.45;;;2.47;;
52776;SDS011;38656;54.260;20.822;2023-05-10T09:50:16;13.50;;;2.60;;
52776;SDS011;38656;54.260;20.822;2023-05-10T09:52:56;4.38;;;2.42;;
52776;SDS011;38656;54.260;20.822;2023-05-10T09:55:45;8.60;;;2.42;;
52776;SDS011;38656;54.260;20.822;2023-05-10T09:58:12;8.48;;;2.35;;
52776;SDS011;38656;54.260;20.822;2023-05-10T10:00:39;4.18;;;2.58;;
52776;SDS011;38656;54.260;20.822;2023-05-10T10:03:14;7.07;;;2.28;;
52776;SDS011;38656;54.260;20.822;2023-05-10T10:05:42;4.43;;;2.33;;
52776;SDS011;38656;54.260;20.822;2023-05-10T10:08:09;3.88;;;2.28;;
52776;SDS011;38656;54.260;20.822;2023-05-10T10:10:36;3.40;;;2.25;;
52776;SDS011;38656;54.260;20.822;2023-05-10T10:13:03;8.70;;;2.40;;
52776;SDS011;38656;54.260;20.822;2023-05-10T10:15:29;6.70;;;2.58;;
52776;SDS011;38656;54.260;20.822;2023-05-10T10:17:57;5.25;;;3.20;;
52776;SDS011;38656;54.260;20.822;2023-05-10T10:20:25;7.93;;;3.45;;
52776;SDS011;38656;54.260;20.822;2023-05-10T10:22:51;4.22;;;2.60;;
52776;SDS011;38656;54.260;20.822;2023-05-10T10:25:18;4.90;;;2.50;;
52776;SDS011;38656;54.260;20.822;2023-05-10T10:35:53;4.90;;;2.33;;
52776;SDS011;38656;54.260;20.822;2023-05-10T10:38:22;7.95;;;3.45;;
52776;SDS011;38656;54.260;20.822;2023-05-10T10:40:57;7.57;;;2.55;;
52776;SDS011;38656;54.260;20.822;2023-05-10T10:43:28;4.63;;;2.00;;
52776;SDS011;38656;54.260;20.822;2023-05-10T10:49:07;4.55;;;2.78;;
52776;SDS011;38656;54.260;20.822;2023-05-10T10:54:10;4.97;;;2.22;;
52776;SDS011;38656;54.260;20.822;2023-05-10T10:56:37;5.25;;;2.90;;
52776;SDS011;38656;54.260;20.822;2023-05-10T10:59:03;4.85;;;2.70;;
52776;SDS011;38656;54.260;20.822;2023-05-10T11:01:33;10.50;;;2.63;;
52776;SDS011;38656;54.260;20.822;2023-05-10T11:06:31;10.20;;;2.78;;
52776;SDS011;38656;54.260;20.822;2023-05-10T11:09:06;10.30;;;2.67;;
52776;SDS011;38656;54.260;20.822;2023-05-10T11:11:48;7.35;;;2.30;;
52776;SDS011;38656;54.260;20.822;2023-05-10T11:14:19;3.33;;;2.30;;
52776;SDS011;38656;54.260;20.822;2023-05-10T11:16:47;2.70;;;2.28;;
52776;SDS011;38656;54.260;20.822;2023-05-10T11:19:14;2.28;;;2.08;;
52776;SDS011;38656;54.260;20.822;2023-05-10T11:21:48;5.40;;;2.22;;
52776;SDS011;38656;54.260;20.822;2023-05-10T11:24:22;5.28;;;2.83;;
52776;SDS011;38656;54.260;20.822;2023-05-10T11:26:52;7.35;;;3.05;;
52776;SDS011;38656;54.260;20.822;2023-05-10T11:29:19;10.48;;;3.15;;
52776;SDS011;38656;54.260;20.822;2023-05-10T11:31:46;5.63;;;2.85;;
52776;SDS011;38656;54.260;20.822;2023-05-10T11:34:26;6.07;;;2.15;;
52776;SDS011;38656;54.260;20.822;2023-05-10T11:36:58;7.07;;;2.60;;
52776;SDS011;38656;54.260;20.822;2023-05-10T11:39:29;6.00;;;2.40;;
52776;SDS011;38656;54.260;20.822;2023-05-10T11:41:56;4.35;;;2.70;;
52776;SDS011;38656;54.260;20.822;2023-05-10T11:44:24;5.07;;;1.88;;
52776;SDS011;38656;54.260;20.822;2023-05-10T11:46:57;3.47;;;2.15;;
52776;SDS011;38656;54.260;20.822;2023-05-10T11:49:25;8.57;;;2.95;;
52776;SDS011;38656;54.260;20.822;2023-05-10T11:51:51;3.40;;;2.45;;
52776;SDS011;38656;54.260;20.822;2023-05-10T11:54:17;4.03;;;2.20;;
52776;SDS011;38656;54.260;20.822;2023-05-10T11:56:44;5.90;;;3.00;;
52776;SDS011;38656;54.260;20.822;2023-05-10T11:59:10;7.25;;;2.58;;
52776;SDS011;38656;54.260;20.822;2023-05-10T12:01:40;8.57;;;2.65;;
52776;SDS011;38656;54.260;20.822;2023-05-10T12:04:06;6.03;;;2.63;;
52776;SDS011;38656;54.260;20.822;2023-05-10T12:06:34;2.90;;;2.35;;
52776;SDS011;38656;54.260;20.822;2023-05-10T12:09:06;5.75;;;2.22;;
52776;SDS011;38656;54.260;20.822;2023-05-10T12:11:35;5.88;;;2.53;;
52776;SDS011;38656;54.260;20.822;2023-05-10T12:14:04;9.27;;;2.20;;
52776;SDS011;38656;54.260;20.822;2023-05-10T12:16:31;7.53;;;2.03;;
52776;SDS011;38656;54.260;20.822;2023-05-10T12:18:58;4.43;;;2.20;;
52776;SDS011;38656;54.260;20.822;2023-05-10T12:21:25;6.13;;;1.98;;
52776;SDS011;38656;54.260;20.822;2023-05-10T12:23:59;5.63;;;2.67;;
52776;SDS011;38656;54.260;20.822;2023-05-10T12:26:28;3.92;;;2.35;;
52776;SDS011;38656;54.260;20.822;2023-05-10T12:28:55;4.43;;;2.20;;
52776;SDS011;38656;54.260;20.822;2023-05-10T12:31:54;2.75;;;2.17;;
52776;SDS011;38656;54.260;20.822;2023-05-10T12:34:31;6.10;;;2.40;;
52776;SDS011;38656;54.260;20.822;2023-05-10T12:37:00;3.78;;;2.05;;
52776;SDS011;38656;54.260;20.822;2023-05-10T12:39:42;2.63;;;1.70;;
52776;SDS011;38656;54.260;20.822;2023-05-10T12:42:09;6.85;;;2.00;;
52776;SDS011;38656;54.260;20.822;2023-05-10T12:44:36;3.42;;;1.70;;
52776;SDS011;38656;54.260;20.822;2023-05-10T12:47:02;2.95;;;1.75;;
52776;SDS011;38656;54.260;20.822;2023-05-10T12:49:28;7.63;;;1.92;;
52776;SDS011;38656;54.260;20.822;2023-05-10T12:51:55;4.53;;;2.20;;
52776;SDS011;38656;54.260;20.822;2023-05-10T12:54:21;4.72;;;2.00;;
52776;SDS011;38656;54.260;20.822;2023-05-10T12:56:47;7.72;;;2.78;;
52776;SDS011;38656;54.260;20.822;2023-05-10T12:59:14;5.43;;;2.25;;
52776;SDS011;38656;54.260;20.822;2023-05-10T13:01:41;5.85;;;1.90;;
52776;SDS011;38656;54.260;20.822;2023-05-10T13:04:07;9.55;;;2.15;;
52776;SDS011;38656;54.260;20.822;2023-05-10T13:06:33;6.00;;;2.08;;
52776;SDS011;38656;54.260;20.822;2023-05-10T13:09:00;5.55;;;2.20;;
52776;SDS011;38656;54.260;20.822;2023-05-10T13:11:26;8.25;;;2.33;;
52776;SDS011;38656;54.260;20.822;2023-05-10T13:13:52;10.32;;;2.30;;
52776;SDS011;38656;54.260;20.822;2023-05-10T13:16:19;5.45;;;1.90;;
52776;SDS011;38656;54.260;20.822;2023-05-10T13:18:45;3.22;;;1.77;;
52776;SDS011;38656;54.260;20.822;2023-05-10T13:21:11;5.43;;;2.65;;
52776;SDS011;38656;54.260;20.822;2023-05-10T13:23:37;5.85;;;2.17;;
52776;SDS011;38656;54.260;20.822;2023-05-10T13:26:04;4.38;;;2.25;;
52776;SDS011;38656;54.260;20.822;2023-05-10T13:28:30;2.97;;;2.05;;
52776;SDS011;38656;54.260;20.822;2023-05-10T13:30:56;8.48;;;2.20;;
52776;SDS011;38656;54.260;20.822;2023-05-10T13:33:22;3.55;;;2.30;;
52776;SDS011;38656;54.260;20.822;2023-05-10T13:35:49;9.80;;;2.17;;
52776;SDS011;38656;54.260;20.822;2023-05-10T13:38:15;9.30;;;2.10;;
52776;SDS011;38656;54.260;20.822;2023-05-10T13:40:41;3.58;;;1.83;;
52776;SDS011;38656;54.260;20.822;2023-05-10T13:43:07;3.28;;;1.77;;
52776;SDS011;38656;54.260;20.822;2023-05-10T13:45:34;9.25;;;6.40;;
52776;SDS011;38656;54.260;20.822;2023-05-10T13:48:00;14.73;;;4.22;;
52776;SDS011;38656;54.260;20.822;2023-05-10T13:50:27;3.53;;;2.35;;
52776;SDS011;38656;54.260;20.822;2023-05-10T13:52:53;31.77;;;29.08;;
52776;SDS011;38656;54.260;20.822;2023-05-10T13:55:19;17.08;;;10.07;;
52776;SDS011;38656;54.260;20.822;2023-05-10T13:57:45;44.28;;;29.80;;
52776;SDS011;38656;54.260;20.822;2023-05-10T14:00:12;28.77;;;21.60;;
52776;SDS011;38656;54.260;20.822;2023-05-10T14:02:39;21.48;;;19.23;;
52776;SDS011;38656;54.260;20.822;2023-05-10T14:05:05;17.73;;;11.23;;
52776;SDS011;38656;54.260;20.822;2023-05-10T14:07:31;4.10;;;2.35;;
52776;SDS011;38656;54.260;20.822;2023-05-10T14:09:58;5.60;;;2.60;;
52776;SDS011;38656;54.260;20.822;2023-05-10T14:12:24;3.30;;;2.20;;
52776;SDS011;38656;54.260;20.822;2023-05-10T14:14:51;3.33;;;2.40;;
52776;SDS011;38656;54.260;20.822;2023-05-10T14:17:17;9.80;;;2.08;;
52776;SDS011;38656;54.260;20.822;2023-05-10T14:19:44;9.35;;;2.47;;
52776;SDS011;38656;54.260;20.822;2023-05-10T14:22:10;7.22;;;2.30;;
52776;SDS011;38656;54.260;20.822;2023-05-10T14:24:37;8.88;;;2.30;;
52776;SDS011;38656;54.260;20.822;2023-05-10T14:27:03;6.90;;;2.13;;
52776;SDS011;38656;54.260;20.822;2023-05-10T14:29:30;3.85;;;3.13;;
52776;SDS011;38656;54.260;20.822;2023-05-10T14:31:57;6.18;;;4.88;;
52776;SDS011;38656;54.260;20.822;2023-05-10T14:34:23;2.75;;;2.10;;
52776;SDS011;38656;54.260;20.822;2023-05-10T14:36:49;7.70;;;2.65;;
52776;SDS011;38656;54.260;20.822;2023-05-10T14:39:16;6.32;;;2.90;;
52776;SDS011;38656;54.260;20.822;2023-05-10T14:41:43;5.72;;;2.47;;
52776;SDS011;38656;54.260;20.822;2023-05-10T14:44:10;6.18;;;2.25;;
52776;SDS011;38656;54.260;20.822;2023-05-10T14:46:36;7.43;;;2.20;;
52776;SDS011;38656;54.260;20.822;2023-05-10T14:49:03;8.73;;;2.22;;
52776;SDS011;38656;54.260;20.822;2023-05-10T14:51:29;7.13;;;2.60;;
52776;SDS011;38656;54.260;20.822;2023-05-10T14:53:56;10.80;;;2.22;;
52776;SDS011;38656;54.260;20.822;2023-05-10T14:56:22;9.00;;;4.65;;
52776;SDS011;38656;54.260;20.822;2023-05-10T14:58:49;3.13;;;2.35;;
52776;SDS011;38656;54.260;20.822;2023-05-10T15:01:18;4.80;;;2.70;;
52776;SDS011;38656;54.260;20.822;2023-05-10T15:03:44;5.35;;;2.72;;
52776;SDS011;38656;54.260;20.822;2023-05-10T15:06:10;10.15;;;4.97;;
52776;SDS011;38656;54.260;20.822;2023-05-10T15:08:40;9.57;;;4.50;;
52776;SDS011;38656;54.260;20.822;2023-05-10T15:11:06;5.40;;;2.90;;
52776;SDS011;38656;54.260;20.822;2023-05-10T15:13:32;2.83;;;2.30;;